createdAt,value
2023-02-16T00:00:38.160Z,21.20
2023-02-16T00:03:04.712Z,20.42
2023-02-16T00:05:34.768Z,19.30
2023-02-16T00:08:15.526Z,20.08
2023-02-16T00:10:42.276Z,20.42
2023-02-16T00:13:44.827Z,20.38
2023-02-16T00:16:19.217Z,20.38
2023-02-16T00:18:46.285Z,20.57
2023-02-16T00:21:18.859Z,19.50
2023-02-16T00:23:53.383Z,22.35
2023-02-16T00:26:28.187Z,20.20
2023-02-16T00:29:00.791Z,20.02
2023-02-16T00:31:31.966Z,19.83
2023-02-16T00:34:00.282Z,19.98
2023-02-16T00:36:26.739Z,22.73
2023-02-16T00:39:10.682Z,20.17
2023-02-16T00:41:52.345Z,20.00
2023-02-16T00:44:26.110Z,20.53
2023-02-16T00:47:16.439Z,22.00
2023-02-16T00:49:43.939Z,21.58
2023-02-16T00:52:42.983Z,21.00
2023-02-16T00:55:12.402Z,20.60
2023-02-16T00:58:00.652Z,20.93
2023-02-16T01:00:31.827Z,19.83
2023-02-16T01:03:00.847Z,21.75
2023-02-16T01:05:37.482Z,20.08
2023-02-16T01:08:32.342Z,20.95
2023-02-16T01:11:04.470Z,21.20
2023-02-16T01:13:32.611Z,20.73
2023-02-16T01:15:59.227Z,22.13
2023-02-16T01:18:25.683Z,19.70
2023-02-16T01:21:06.504Z,22.30
2023-02-16T01:23:38.469Z,21.37
2023-02-16T01:26:24.373Z,19.83
2023-02-16T01:29:03.646Z,21.73
2023-02-16T01:31:32.560Z,20.83
2023-02-16T01:33:59.100Z,21.17
2023-02-16T01:36:34.408Z,22.50
2023-02-16T01:39:21.422Z,20.92
2023-02-16T01:42:07.825Z,20.50
2023-02-16T01:44:56.687Z,22.15
2023-02-16T01:47:30.076Z,23.10
2023-02-16T01:50:18.239Z,20.33
2023-02-16T01:52:53.007Z,22.45
2023-02-16T01:55:42.769Z,23.02
2023-02-16T01:58:36.357Z,21.20
2023-02-16T02:01:05.154Z,21.50
2023-02-16T02:04:05.693Z,20.73
2023-02-16T02:06:35.183Z,21.50
2023-02-16T02:09:59.168Z,21.05
2023-02-16T02:12:52.988Z,20.92
2023-02-16T02:15:23.751Z,21.60
2023-02-16T02:17:50.274Z,21.83
2023-02-16T02:24:33.786Z,22.15
2023-02-16T02:27:38.631Z,18.20
2023-02-16T02:30:22.978Z,22.27
2023-02-16T02:33:34.753Z,20.23
2023-02-16T02:36:40.477Z,21.33
2023-02-16T02:39:50.472Z,21.48
2023-02-16T02:42:31.693Z,21.63
2023-02-16T02:45:09.312Z,22.02
2023-02-16T02:47:54.129Z,20.40
2023-02-16T02:51:06.840Z,20.83
2023-02-16T02:53:41.702Z,20.27
2023-02-16T02:56:28.855Z,19.38
2023-02-16T02:59:19.398Z,21.98
2023-02-16T03:01:53.522Z,20.50
2023-02-16T03:04:31.504Z,21.17
2023-02-16T03:07:01.382Z,22.15
2023-02-16T03:09:29.931Z,21.42
2023-02-16T03:12:32.399Z,20.88
2023-02-16T03:15:05.124Z,20.70
2023-02-16T03:17:56.458Z,21.15
2023-02-16T03:20:46.679Z,21.30
2023-02-16T03:23:31.385Z,21.17
2023-02-16T03:26:16.273Z,21.73
2023-02-16T03:29:03.803Z,20.43
2023-02-16T03:31:41.295Z,21.42
2023-02-16T03:34:11.019Z,21.05
2023-02-16T03:36:41.752Z,21.52
2023-02-16T03:39:20.650Z,21.67
2023-02-16T03:41:50.986Z,21.03
2023-02-16T03:44:18.007Z,21.48
2023-02-16T03:46:45.172Z,21.13
2023-02-16T03:49:11.783Z,22.60
2023-02-16T03:51:38.680Z,21.80
2023-02-16T03:54:05.148Z,20.40
2023-02-16T03:56:53.344Z,20.10
2023-02-16T03:59:20.394Z,20.95
2023-02-16T04:01:46.863Z,21.10
2023-02-16T04:04:21.550Z,22.83
2023-02-16T04:06:47.952Z,22.30
2023-02-16T04:09:49.453Z,22.17
2023-02-16T04:12:34.657Z,20.70
2023-02-16T04:15:17.788Z,21.17
2023-02-16T04:18:23.335Z,21.77
2023-02-16T04:20:49.714Z,20.80
2023-02-16T04:23:27.159Z,20.25
2023-02-16T04:25:53.570Z,22.17
2023-02-16T04:28:21.036Z,21.80
2023-02-16T04:30:52.008Z,21.02
2023-02-16T04:33:25.004Z,21.50
2023-02-16T04:35:52.542Z,22.23
2023-02-16T04:38:18.993Z,21.52
2023-02-16T04:41:04.086Z,21.90
2023-02-16T04:43:52.721Z,22.23
2023-02-16T04:46:22.452Z,22.03
2023-02-16T04:49:03.587Z,22.33
2023-02-16T04:51:29.970Z,22.70
2023-02-16T04:54:04.651Z,22.38
2023-02-16T04:56:43.983Z,23.33
2023-02-16T04:59:10.991Z,21.87
2023-02-16T05:02:05.437Z,23.52
2023-02-16T05:04:42.386Z,22.50
2023-02-16T05:07:08.915Z,22.38
2023-02-16T05:09:35.351Z,23.70
2023-02-16T05:12:20.239Z,22.10
2023-02-16T05:15:06.003Z,22.67
2023-02-16T05:17:32.389Z,22.30
2023-02-16T05:20:01.742Z,22.35
2023-02-16T05:22:33.503Z,22.90
2023-02-16T05:25:18.433Z,22.60
2023-02-16T05:27:44.821Z,23.38
2023-02-16T05:30:13.138Z,23.50
2023-02-16T05:32:46.877Z,22.45
2023-02-16T05:35:25.450Z,22.67
2023-02-16T05:37:56.874Z,22.20
2023-02-16T05:40:25.303Z,22.65
2023-02-16T05:43:00.966Z,23.52
2023-02-16T05:45:27.597Z,22.50
2023-02-16T05:48:16.713Z,22.63
2023-02-16T05:50:58.518Z,21.43
2023-02-16T05:53:25.063Z,23.27
2023-02-16T05:56:28.852Z,24.17
2023-02-16T05:58:55.706Z,23.23
2023-02-16T06:01:22.271Z,23.98
2023-02-16T06:04:05.171Z,23.53
2023-02-16T06:06:31.641Z,23.23
2023-02-16T06:08:59.111Z,23.25
2023-02-16T06:11:37.788Z,22.88
2023-02-16T06:14:13.450Z,24.08
2023-02-16T06:16:41.570Z,24.20
2023-02-16T06:19:08.799Z,23.65
2023-02-16T06:21:36.439Z,23.77
2023-02-16T06:24:11.318Z,23.65
2023-02-16T06:26:38.320Z,24.45
2023-02-16T06:29:05.647Z,22.67
2023-02-16T06:31:39.818Z,23.50
2023-02-16T06:34:06.453Z,23.73
2023-02-16T06:37:04.611Z,24.25
2023-02-16T06:39:31.074Z,24.05
2023-02-16T06:41:57.552Z,23.13
2023-02-16T06:44:23.984Z,23.30
2023-02-16T06:46:50.669Z,24.65
2023-02-16T06:49:19.658Z,24.65
2023-02-16T06:51:47.127Z,25.15
2023-02-16T06:54:13.805Z,23.43
2023-02-16T06:56:40.635Z,23.23
2023-02-16T06:59:07.318Z,22.55
2023-02-16T07:01:34.390Z,22.48
2023-02-16T07:04:00.767Z,24.20
2023-02-16T07:06:28.646Z,23.57
2023-02-16T07:08:55.506Z,23.65
2023-02-16T07:11:22.195Z,24.35
2023-02-16T07:13:52.890Z,24.42
2023-02-16T07:16:25.466Z,24.02
2023-02-16T07:18:51.995Z,22.83
2023-02-16T07:21:18.511Z,24.23
2023-02-16T07:24:00.275Z,25.15
2023-02-16T07:26:28.111Z,24.23
2023-02-16T07:28:54.566Z,23.70
2023-02-16T07:31:31.311Z,23.10
2023-02-16T07:33:57.868Z,23.20
2023-02-16T07:36:24.277Z,25.55
2023-02-16T07:38:50.641Z,24.55
2023-02-16T07:41:17.156Z,25.02
2023-02-16T07:43:44.152Z,25.03
2023-02-16T07:46:11.057Z,24.83
2023-02-16T07:48:37.559Z,24.38
2023-02-16T07:51:04.780Z,24.52
2023-02-16T07:53:31.560Z,24.58
2023-02-16T07:55:58.092Z,24.23
2023-02-16T07:58:27.726Z,23.45
2023-02-16T08:01:07.174Z,23.42
2023-02-16T08:03:33.638Z,23.60
2023-02-16T08:06:01.279Z,24.45
2023-02-16T08:08:28.013Z,23.57
2023-02-16T08:10:54.414Z,22.70
2023-02-16T08:13:20.898Z,24.35
2023-02-16T08:15:56.560Z,23.98
2023-02-16T08:18:22.973Z,23.27
2023-02-16T08:21:03.414Z,22.70
2023-02-16T08:23:31.581Z,22.92
2023-02-16T08:25:59.013Z,25.00
2023-02-16T08:28:32.776Z,23.63
2023-02-16T08:31:17.314Z,23.60
2023-02-16T08:33:49.432Z,25.00
2023-02-16T08:36:21.006Z,23.40
2023-02-16T08:38:50.399Z,23.33
2023-02-16T08:41:20.127Z,22.85
2023-02-16T08:43:47.540Z,25.90
2023-02-16T08:46:14.342Z,23.47
2023-02-16T08:48:40.843Z,23.13
2023-02-16T08:51:17.648Z,23.08
2023-02-16T08:53:46.680Z,21.73
2023-02-16T08:56:14.918Z,23.33
2023-02-16T08:58:41.371Z,23.40
2023-02-16T09:01:09.030Z,23.63
2023-02-16T09:03:36.512Z,23.40
2023-02-16T09:06:05.621Z,23.60
2023-02-16T09:08:33.095Z,23.80
2023-02-16T09:11:06.994Z,22.50
2023-02-16T09:13:35.641Z,22.45
2023-02-16T09:16:10.285Z,22.35
2023-02-16T09:18:38.348Z,23.25
2023-02-16T09:21:06.871Z,23.50
2023-02-16T09:23:35.738Z,23.47
2023-02-16T09:26:02.811Z,23.25
2023-02-16T09:28:30.743Z,23.90
2023-02-16T09:30:57.227Z,23.90
2023-02-16T09:33:25.173Z,24.85
2023-02-16T09:35:52.958Z,23.87
2023-02-16T09:38:21.363Z,23.75
2023-02-16T09:40:50.848Z,25.95
2023-02-16T09:43:39.283Z,24.30
2023-02-16T09:46:12.006Z,24.50
2023-02-16T09:48:45.528Z,24.47
2023-02-16T09:51:33.753Z,25.02
2023-02-16T09:54:21.714Z,24.58
2023-02-16T09:56:56.605Z,23.42
2023-02-16T09:59:43.148Z,24.02
2023-02-16T10:02:38.679Z,23.63
2023-02-16T10:05:14.394Z,23.00
2023-02-16T10:07:52.831Z,24.80
2023-02-16T10:10:23.354Z,23.90
2023-02-16T10:13:23.556Z,23.55
2023-02-16T10:15:53.980Z,24.17
2023-02-16T10:18:36.706Z,24.55
2023-02-16T10:21:11.233Z,24.65
2023-02-16T10:24:04.806Z,24.00
2023-02-16T10:27:07.546Z,25.95
2023-02-16T10:29:48.517Z,24.23
2023-02-16T10:32:37.286Z,23.80
2023-02-16T10:35:20.581Z,25.67
2023-02-16T10:37:50.986Z,24.40
2023-02-16T10:40:25.879Z,25.50
2023-02-16T10:43:18.507Z,24.60
2023-02-16T10:45:59.104Z,24.95
2023-02-16T10:48:26.278Z,24.92
2023-02-16T10:51:06.248Z,24.58
2023-02-16T10:53:54.531Z,24.67
2023-02-16T10:57:01.804Z,24.33
2023-02-16T10:59:38.507Z,24.48
2023-02-16T11:02:26.895Z,25.38
2023-02-16T11:04:56.164Z,24.50
2023-02-16T11:07:31.261Z,26.13
2023-02-16T11:10:01.388Z,23.67
2023-02-16T11:12:31.095Z,25.50
2023-02-16T11:15:03.268Z,25.80
2023-02-16T11:17:32.321Z,26.58
2023-02-16T11:20:02.424Z,24.40
2023-02-16T11:22:35.071Z,24.70
2023-02-16T11:25:26.944Z,23.92
2023-02-16T11:27:59.577Z,25.10
2023-02-16T11:30:35.948Z,24.13
2023-02-16T11:33:27.624Z,24.73
2023-02-16T11:35:55.227Z,23.27
2023-02-16T11:38:28.350Z,25.63
2023-02-16T11:41:14.187Z,25.58
2023-02-16T11:43:42.216Z,24.70
2023-02-16T11:46:18.403Z,26.13
2023-02-16T11:48:47.166Z,24.40
2023-02-16T11:51:15.717Z,25.48
2023-02-16T11:54:16.382Z,25.55
2023-02-16T11:57:09.422Z,24.38
2023-02-16T11:59:39.892Z,24.10
2023-02-16T12:02:24.329Z,24.80
2023-02-16T12:05:31.672Z,25.23
2023-02-16T12:09:02.420Z,24.80
2023-02-16T12:11:36.943Z,23.65
2023-02-16T12:14:42.923Z,25.42
2023-02-16T12:17:28.101Z,25.20
2023-02-16T12:23:59.111Z,25.00
2023-02-16T12:26:47.093Z,24.27
2023-02-16T12:29:55.354Z,26.50
2023-02-16T12:32:30.192Z,25.87
2023-02-16T12:35:23.699Z,24.63
2023-02-16T12:38:19.135Z,24.77
2023-02-16T12:41:33.877Z,23.50
2023-02-16T12:44:25.084Z,24.95
2023-02-16T12:47:16.295Z,22.80
2023-02-16T12:50:16.567Z,23.55
2023-02-16T12:52:54.718Z,26.25
2023-02-16T12:55:40.002Z,24.67
2023-02-16T12:58:17.525Z,22.92
2023-02-16T13:00:49.642Z,23.60
2023-02-16T13:03:44.606Z,24.58
2023-02-16T13:06:29.911Z,23.98
2023-02-16T13:09:34.199Z,22.70
2023-02-16T13:12:31.439Z,23.98
2023-02-16T13:15:10.217Z,22.10
2023-02-16T13:17:47.446Z,22.30
2023-02-16T13:20:17.855Z,22.30
2023-02-16T13:23:13.566Z,22.27
2023-02-16T13:25:59.096Z,21.75
2023-02-16T13:29:10.672Z,21.57
2023-02-16T13:31:49.413Z,21.77
2023-02-16T13:34:39.122Z,22.30
2023-02-16T13:37:31.600Z,21.30
2023-02-16T13:40:30.937Z,19.85
2023-02-16T13:43:50.471Z,19.20
2023-02-16T13:46:32.977Z,19.20
2023-02-16T13:49:02.158Z,20.35
2023-02-16T13:51:40.063Z,20.17
2023-02-16T13:54:08.778Z,18.30
2023-02-16T13:56:43.486Z,18.70
2023-02-16T13:59:19.340Z,18.67
2023-02-16T14:01:47.439Z,18.90
2023-02-16T14:04:27.822Z,18.65
2023-02-16T14:07:03.358Z,18.75
2023-02-16T14:10:20.559Z,17.47
2023-02-16T14:12:46.930Z,17.42
2023-02-16T14:15:19.696Z,17.83
2023-02-16T14:17:47.250Z,17.80
2023-02-16T14:20:13.780Z,16.40
2023-02-16T14:22:43.222Z,17.47
2023-02-16T14:25:27.167Z,16.52
2023-02-16T14:27:59.636Z,16.90
2023-02-16T14:30:35.560Z,16.08
2023-02-16T14:33:17.148Z,15.73
2023-02-16T14:35:46.727Z,16.60
2023-02-16T14:38:22.005Z,16.98
2023-02-16T14:41:03.905Z,17.05
2023-02-16T14:43:42.308Z,17.25
2023-02-16T14:46:47.127Z,16.25
2023-02-16T14:49:40.736Z,16.20
2023-02-16T14:52:37.104Z,14.85
2023-02-16T14:55:24.555Z,15.85
2023-02-16T14:57:58.113Z,15.40
2023-02-16T15:00:29.684Z,15.65
2023-02-16T15:03:13.925Z,15.43
2023-02-16T15:05:40.829Z,15.27
2023-02-16T15:08:22.895Z,14.60
2023-02-16T15:10:55.795Z,13.60
2023-02-16T15:13:30.982Z,12.75
2023-02-16T15:16:02.434Z,12.17
2023-02-16T15:18:33.820Z,11.00
2023-02-16T15:21:00.686Z,10.80
2023-02-16T15:23:30.689Z,11.32
2023-02-16T15:26:04.049Z,11.50
2023-02-16T15:28:36.482Z,11.30
2023-02-16T15:31:18.059Z,11.55
2023-02-16T15:34:22.521Z,12.25
2023-02-16T15:36:48.987Z,11.85
2023-02-16T15:39:31.181Z,11.43
2023-02-16T15:42:19.793Z,12.00
2023-02-16T15:44:48.048Z,12.18
2023-02-16T15:47:20.670Z,12.48
2023-02-16T15:49:52.953Z,12.57
2023-02-16T15:52:27.495Z,12.85
2023-02-16T15:54:53.999Z,12.37
2023-02-16T15:57:32.535Z,12.27
2023-02-16T16:00:21.582Z,14.23
2023-02-16T16:02:59.260Z,13.68
2023-02-16T16:05:32.973Z,13.43
2023-02-16T16:08:00.759Z,13.97
2023-02-16T16:10:36.798Z,13.82
2023-02-16T16:13:24.878Z,14.43
2023-02-16T16:15:53.224Z,13.65
2023-02-16T16:18:43.601Z,13.70
2023-02-16T16:21:18.862Z,13.90
2023-02-16T16:24:01.215Z,13.68
2023-02-16T16:26:29.743Z,13.88
2023-02-16T16:28:56.835Z,15.65
2023-02-16T16:31:23.291Z,15.35
2023-02-16T16:34:03.750Z,15.47
2023-02-16T16:36:33.211Z,14.93
2023-02-16T16:39:17.774Z,15.63
2023-02-16T16:42:09.156Z,14.55
2023-02-16T16:44:41.785Z,15.48
2023-02-16T16:47:33.678Z,14.93
2023-02-16T16:50:26.285Z,15.20
2023-02-16T16:52:53.077Z,14.85
2023-02-16T16:55:19.604Z,13.93
2023-02-16T16:57:47.136Z,14.07
2023-02-16T17:00:17.214Z,15.73
2023-02-16T17:02:43.625Z,15.52
2023-02-16T17:05:10.166Z,15.25
2023-02-16T17:07:36.513Z,15.27
2023-02-16T17:10:03.619Z,16.13
2023-02-16T17:12:39.812Z,14.50
2023-02-16T17:15:17.585Z,16.63
2023-02-16T17:17:46.086Z,16.42
2023-02-16T17:20:15.759Z,16.42
2023-02-16T17:22:43.220Z,17.33
2023-02-16T17:25:09.666Z,15.70
2023-02-16T17:27:36.246Z,16.30
2023-02-16T17:30:03.680Z,17.40
2023-02-16T17:32:30.102Z,16.35
2023-02-16T17:34:56.489Z,17.77
2023-02-16T17:37:22.963Z,17.87
2023-02-16T17:39:55.337Z,17.55
2023-02-16T17:42:21.775Z,17.08
2023-02-16T17:44:48.159Z,18.40
2023-02-16T17:47:16.200Z,17.45
2023-02-16T17:49:42.671Z,17.20
2023-02-16T17:52:11.358Z,19.13
2023-02-16T17:54:38.195Z,20.42
2023-02-16T17:57:04.694Z,17.90
2023-02-16T17:59:33.255Z,18.38
2023-02-16T18:02:00.674Z,17.60
2023-02-16T18:04:27.082Z,18.30
2023-02-16T18:06:53.461Z,18.83
2023-02-16T18:09:24.235Z,19.58
2023-02-16T18:11:51.049Z,18.17
2023-02-16T18:14:17.413Z,18.37
2023-02-16T18:16:44.141Z,18.95
2023-02-16T18:19:14.701Z,18.27
2023-02-16T18:21:41.080Z,18.25
2023-02-16T18:24:07.473Z,18.25
2023-02-16T18:26:33.937Z,17.80
2023-02-16T18:29:00.330Z,17.80
2023-02-16T18:31:26.811Z,18.40
2023-02-16T18:33:53.268Z,18.10
2023-02-16T18:36:19.620Z,18.35
2023-02-16T18:38:46.038Z,18.07
2023-02-16T18:41:12.817Z,16.95
2023-02-16T18:43:39.177Z,17.98
2023-02-16T18:46:09.839Z,17.77
2023-02-16T18:48:36.723Z,17.75
2023-02-16T18:51:05.279Z,16.73
2023-02-16T18:53:31.722Z,16.45
2023-02-16T18:55:58.190Z,17.20
2023-02-16T18:58:24.649Z,16.42
2023-02-16T19:00:51.060Z,15.63
2023-02-16T19:03:17.467Z,15.83
2023-02-16T19:05:43.899Z,16.35
2023-02-16T19:08:10.291Z,15.77
2023-02-16T19:10:36.627Z,15.88
2023-02-16T19:13:05.010Z,15.55
2023-02-16T19:15:33.217Z,16.27
2023-02-16T19:17:59.770Z,16.25
2023-02-16T19:20:28.098Z,16.63
2023-02-16T19:22:54.467Z,15.73
2023-02-16T19:25:21.253Z,16.45
2023-02-16T19:27:48.024Z,15.80
2023-02-16T19:30:14.531Z,15.50
2023-02-16T19:32:41.515Z,15.30
2023-02-16T19:35:09.836Z,15.23
2023-02-16T19:37:36.368Z,14.50
2023-02-16T19:40:03.920Z,13.87
2023-02-16T19:42:30.329Z,14.38
2023-02-16T19:44:56.693Z,14.63
2023-02-16T19:47:23.108Z,15.00
2023-02-16T19:49:49.481Z,14.90
2023-02-16T19:52:16.973Z,15.20
2023-02-16T19:54:53.299Z,14.00
2023-02-16T19:57:20.862Z,14.52
2023-02-16T19:59:47.211Z,14.18
2023-02-16T20:02:15.388Z,13.23
2023-02-16T20:04:43.273Z,12.47
2023-02-16T20:07:09.909Z,13.38
2023-02-16T20:09:37.432Z,12.75
2023-02-16T20:12:04.930Z,11.75
2023-02-16T20:14:45.319Z,12.95
2023-02-16T20:17:16.815Z,12.10
2023-02-16T20:19:49.167Z,11.98
2023-02-16T20:22:16.830Z,12.05
2023-02-16T20:24:45.282Z,11.93
2023-02-16T20:27:12.965Z,11.10
2023-02-16T20:29:45.205Z,11.37
2023-02-16T20:32:25.671Z,10.10
2023-02-16T20:34:52.144Z,11.30
2023-02-16T20:37:25.441Z,9.98
2023-02-16T20:39:56.512Z,9.95
2023-02-16T20:42:22.901Z,10.23
2023-02-16T20:44:58.337Z,10.00
2023-02-16T20:47:24.683Z,9.70
2023-02-16T20:49:52.116Z,8.98
2023-02-16T20:52:18.579Z,9.30
2023-02-16T20:55:09.619Z,8.97
2023-02-16T20:57:37.719Z,8.60
2023-02-16T21:00:18.471Z,9.27
2023-02-16T21:02:47.381Z,8.85
2023-02-16T21:05:27.862Z,8.50
2023-02-16T21:07:54.238Z,8.70
2023-02-16T21:10:32.697Z,8.77
2023-02-16T21:12:59.104Z,9.45
2023-02-16T21:15:28.722Z,8.57
2023-02-16T21:17:55.086Z,8.63
2023-02-16T21:20:22.578Z,7.10
2023-02-16T21:22:48.964Z,7.90
2023-02-16T21:25:30.725Z,8.05
2023-02-16T21:27:57.150Z,7.50
2023-02-16T21:30:24.945Z,7.63
2023-02-16T21:32:58.480Z,7.57
2023-02-16T21:35:27.186Z,7.57
2023-02-16T21:37:53.556Z,7.82
2023-02-16T21:41:08.734Z,7.10
2023-02-16T21:43:35.128Z,7.95
2023-02-16T21:46:02.864Z,7.73
2023-02-16T21:48:47.687Z,8.02
2023-02-16T21:51:19.783Z,7.40
2023-02-16T21:53:49.174Z,7.38
2023-02-16T21:56:27.955Z,8.18
2023-02-16T21:58:54.314Z,6.63
2023-02-16T22:01:28.468Z,6.50
2023-02-16T22:03:59.293Z,7.60
2023-02-16T22:06:29.153Z,6.35
2023-02-16T22:08:55.711Z,7.10
2023-02-16T22:11:22.167Z,6.90
2023-02-16T22:14:02.057Z,6.63
2023-02-16T22:16:31.702Z,6.70
2023-02-16T22:19:07.704Z,6.55
2023-02-16T22:21:38.794Z,6.13
2023-02-16T22:24:17.108Z,5.47
2023-02-16T22:26:43.781Z,6.03
2023-02-16T22:29:11.900Z,5.22
2023-02-16T22:31:38.853Z,5.07
2023-02-16T22:34:11.558Z,5.47
2023-02-16T22:36:43.156Z,4.87
2023-02-16T22:39:14.103Z,4.90
2023-02-16T22:41:42.957Z,5.28
2023-02-16T22:44:15.656Z,4.22
2023-02-16T22:46:42.770Z,5.47
2023-02-16T22:49:13.374Z,5.47
2023-02-16T22:51:39.861Z,4.65
2023-02-16T22:54:14.346Z,4.93
2023-02-16T22:56:44.053Z,5.10
2023-02-16T22:59:11.492Z,5.15
2023-02-16T23:01:37.849Z,5.70
2023-02-16T23:04:04.337Z,5.00
2023-02-16T23:09:19.009Z,5.63
2023-02-16T23:11:45.877Z,5.75
2023-02-16T23:14:18.123Z,6.38
2023-02-16T23:16:54.814Z,6.18
2023-02-16T23:19:26.079Z,6.57
2023-02-16T23:22:00.534Z,5.90
2023-02-16T23:24:27.126Z,6.75
2023-02-16T23:26:54.071Z,6.57
2023-02-16T23:29:31.694Z,5.82
2023-02-16T23:31:58.077Z,6.73
2023-02-16T23:34:26.564Z,6.78
2023-02-16T23:36:52.997Z,6.78
2023-02-16T23:39:22.581Z,6.20
2023-02-16T23:41:54.012Z,6.82
2023-02-16T23:44:20.373Z,7.07
2023-02-16T23:46:46.746Z,6.85
2023-02-16T23:49:13.471Z,6.97
2023-02-16T23:51:54.094Z,7.32
2023-02-16T23:54:29.967Z,7.22
2023-02-16T23:56:56.384Z,7.83
2023-02-16T23:59:23.667Z,6.65
